createdAt,value
2022-12-24T00:00:57.291Z,11.05
2022-12-24T00:03:24.387Z,11.06
2022-12-24T00:05:51.198Z,11.05
2022-12-24T00:08:18.013Z,11.03
2022-12-24T00:10:45.165Z,11.02
2022-12-24T00:13:13.334Z,11.01
2022-12-24T00:15:39.973Z,10.99
2022-12-24T00:18:06.817Z,10.98
2022-12-24T00:20:34.691Z,10.97
2022-12-24T00:23:01.406Z,10.97
2022-12-24T00:25:28.040Z,10.96
2022-12-24T00:27:54.944Z,10.95
2022-12-24T00:30:23.015Z,10.93
2022-12-24T00:32:49.776Z,10.93
2022-12-24T00:35:16.568Z,10.92
2022-12-24T00:37:43.321Z,10.90
2022-12-24T00:40:10.896Z,10.90
2022-12-24T00:42:37.635Z,10.89
2022-12-24T00:45:06.481Z,10.89
2022-12-24T00:47:34.535Z,10.88
2022-12-24T00:50:02.474Z,10.89
2022-12-24T00:52:29.257Z,10.89
2022-12-24T00:54:56.017Z,10.88
2022-12-24T00:57:22.632Z,10.86
2022-12-24T00:59:49.343Z,10.83
2022-12-24T01:02:16.581Z,10.83
2022-12-24T01:05:03.275Z,10.82
2022-12-24T01:07:29.981Z,10.81
2022-12-24T01:09:56.686Z,10.81
2022-12-24T01:12:23.560Z,10.80
2022-12-24T01:14:50.239Z,10.79
2022-12-24T01:17:17.335Z,10.79
2022-12-24T01:19:45.472Z,10.78
2022-12-24T01:22:12.206Z,10.77
2022-12-24T01:24:40.378Z,10.78
2022-12-24T01:27:07.395Z,10.75
2022-12-24T01:29:34.193Z,10.74
2022-12-24T01:32:01.084Z,10.74
2022-12-24T01:34:28.987Z,10.72
2022-12-24T01:36:57.128Z,10.73
2022-12-24T01:39:24.113Z,10.72
2022-12-24T01:42:09.288Z,10.72
2022-12-24T01:44:41.299Z,10.72
2022-12-24T01:47:11.442Z,10.71
2022-12-24T01:49:42.045Z,10.70
2022-12-24T01:52:14.955Z,10.69
2022-12-24T01:54:46.795Z,10.68
2022-12-24T01:57:18.346Z,10.65
2022-12-24T01:59:47.368Z,10.64
2022-12-24T02:02:14.553Z,10.62
2022-12-24T02:04:44.499Z,10.62
2022-12-24T02:07:12.652Z,10.58
2022-12-24T02:09:39.664Z,10.55
2022-12-24T02:12:07.656Z,10.53
2022-12-24T02:14:35.395Z,10.51
2022-12-24T02:17:10.884Z,10.50
2022-12-24T02:20:09.427Z,10.45
2022-12-24T02:22:56.087Z,10.43
2022-12-24T02:25:50.861Z,10.39
2022-12-24T02:28:33.876Z,10.36
2022-12-24T02:31:05.795Z,10.34
2022-12-24T02:33:38.843Z,10.33
2022-12-24T02:36:11.344Z,10.28
2022-12-24T02:38:46.285Z,10.26
2022-12-24T02:41:16.506Z,10.23
2022-12-24T02:43:46.717Z,10.20
2022-12-24T02:46:18.648Z,10.20
2022-12-24T02:48:48.707Z,10.17
2022-12-24T02:51:16.555Z,10.14
2022-12-24T02:53:43.442Z,10.13
2022-12-24T02:56:29.415Z,10.12
2022-12-24T02:59:10.652Z,10.09
2022-12-24T03:01:49.640Z,10.07
2022-12-24T03:04:39.423Z,10.05
2022-12-24T03:07:13.431Z,10.03
2022-12-24T03:09:54.481Z,10.01
2022-12-24T03:12:28.167Z,10.01
2022-12-24T03:14:55.041Z,9.97
2022-12-24T03:17:23.209Z,9.95
2022-12-24T03:19:50.641Z,9.94
2022-12-24T03:22:18.621Z,9.93
2022-12-24T03:24:45.395Z,9.92
2022-12-24T03:27:14.204Z,9.92
2022-12-24T03:29:41.514Z,9.92
2022-12-24T03:32:08.609Z,9.91
2022-12-24T03:34:36.761Z,9.90
2022-12-24T03:37:03.905Z,9.88
2022-12-24T03:39:30.804Z,9.87
2022-12-24T03:41:57.488Z,9.86
2022-12-24T03:44:24.199Z,9.85
2022-12-24T03:46:50.909Z,9.85
2022-12-24T03:49:17.635Z,9.86
2022-12-24T03:51:45.713Z,9.83
2022-12-24T03:54:12.402Z,9.85
2022-12-24T03:56:39.083Z,9.86
2022-12-24T03:59:05.870Z,9.86
2022-12-24T04:01:35.768Z,9.86
2022-12-24T04:04:02.947Z,9.88
2022-12-24T04:06:29.865Z,9.90
2022-12-24T04:09:01.663Z,9.90
2022-12-24T04:11:28.378Z,9.90
2022-12-24T04:13:55.115Z,9.93
2022-12-24T04:16:21.805Z,9.94
2022-12-24T04:18:48.524Z,9.96
2022-12-24T04:21:15.873Z,9.98
2022-12-24T04:23:42.933Z,10.01
2022-12-24T04:26:12.785Z,10.02
2022-12-24T04:28:40.600Z,10.04
2022-12-24T04:31:09.823Z,10.07
2022-12-24T04:33:37.420Z,10.10
2022-12-24T04:36:06.252Z,10.12
2022-12-24T04:38:33.432Z,10.14
2022-12-24T04:41:00.725Z,10.15
2022-12-24T04:43:32.766Z,10.18
2022-12-24T04:46:05.526Z,10.20
2022-12-24T04:48:32.553Z,10.24
2022-12-24T04:51:01.327Z,10.26
2022-12-24T04:53:28.182Z,10.29
2022-12-24T04:55:54.869Z,10.31
2022-12-24T04:58:21.724Z,10.34
2022-12-24T05:00:49.779Z,10.36
2022-12-24T05:03:16.561Z,10.38
2022-12-24T05:05:43.291Z,10.39
2022-12-24T05:08:10.044Z,10.40
2022-12-24T05:10:36.709Z,10.41
2022-12-24T05:13:03.597Z,10.44
2022-12-24T05:15:30.332Z,10.46
2022-12-24T05:17:58.368Z,10.47
2022-12-24T05:20:25.104Z,10.48
2022-12-24T05:23:10.724Z,10.50
2022-12-24T05:25:58.178Z,10.51
2022-12-24T05:28:25.230Z,10.52
2022-12-24T05:30:52.067Z,10.52
2022-12-24T05:33:20.361Z,10.54
2022-12-24T05:35:47.032Z,10.55
2022-12-24T05:38:13.731Z,10.56
2022-12-24T05:40:40.491Z,10.59
2022-12-24T05:43:07.226Z,10.62
2022-12-24T05:45:34.177Z,10.63
2022-12-24T05:48:01.036Z,10.65
2022-12-24T05:50:29.108Z,10.67
2022-12-24T05:52:56.105Z,10.68
2022-12-24T05:55:22.782Z,10.69
2022-12-24T05:57:49.437Z,10.70
2022-12-24T06:00:16.788Z,10.71
2022-12-24T06:02:43.737Z,10.72
2022-12-24T06:05:10.664Z,10.74
2022-12-24T06:07:39.101Z,10.75
2022-12-24T06:10:07.453Z,10.76
2022-12-24T06:12:34.169Z,10.77
2022-12-24T06:15:00.950Z,10.78
2022-12-24T06:17:27.701Z,10.81
2022-12-24T06:19:54.448Z,10.83
2022-12-24T06:22:21.163Z,10.83
2022-12-24T06:24:49.208Z,10.83
2022-12-24T06:27:15.968Z,10.84
2022-12-24T06:29:42.635Z,10.85
2022-12-24T06:32:09.295Z,10.85
2022-12-24T06:34:36.002Z,10.85
2022-12-24T06:37:02.897Z,10.85
2022-12-24T06:39:29.695Z,10.84
2022-12-24T06:41:58.887Z,10.87
2022-12-24T06:44:26.474Z,10.88
2022-12-24T06:46:53.244Z,10.89
2022-12-24T06:49:21.482Z,10.88
2022-12-24T06:51:48.197Z,10.89
2022-12-24T06:54:14.855Z,10.89
2022-12-24T06:56:41.563Z,10.90
2022-12-24T06:59:09.603Z,10.90
2022-12-24T07:01:36.622Z,10.93
2022-12-24T07:04:03.432Z,10.93
2022-12-24T07:06:30.891Z,10.93
2022-12-24T07:08:57.551Z,10.93
2022-12-24T07:11:25.708Z,10.94
2022-12-24T07:13:52.567Z,10.94
2022-12-24T07:16:21.557Z,10.96
2022-12-24T07:18:48.400Z,10.95
2022-12-24T07:21:15.151Z,10.95
2022-12-24T07:23:41.881Z,10.97
2022-12-24T07:26:08.812Z,10.96
2022-12-24T07:28:35.548Z,10.96
2022-12-24T07:31:02.405Z,10.95
2022-12-24T07:33:30.740Z,10.97
2022-12-24T07:36:01.845Z,10.95
2022-12-24T07:38:29.635Z,10.96
2022-12-24T07:40:56.481Z,10.95
2022-12-24T07:43:23.238Z,10.96
2022-12-24T07:45:50.358Z,10.97
2022-12-24T07:48:17.030Z,10.98
2022-12-24T07:50:45.166Z,10.98
2022-12-24T07:53:12.091Z,10.97
2022-12-24T07:55:38.822Z,10.97
2022-12-24T07:58:05.493Z,10.98
2022-12-24T08:00:32.272Z,10.98
2022-12-24T08:03:00.210Z,10.98
2022-12-24T08:05:27.787Z,10.98
2022-12-24T08:07:55.905Z,10.98
2022-12-24T08:10:22.696Z,10.98
2022-12-24T08:12:50.188Z,10.98
2022-12-24T08:15:17.378Z,10.99
2022-12-24T08:17:44.952Z,10.98
2022-12-24T08:20:12.375Z,10.99
2022-12-24T08:22:39.057Z,10.99
2022-12-24T08:25:08.348Z,10.98
2022-12-24T08:27:35.082Z,10.97
2022-12-24T08:30:01.890Z,10.97
2022-12-24T08:32:28.807Z,10.99
2022-12-24T08:34:55.474Z,10.98
2022-12-24T08:37:22.427Z,10.99
2022-12-24T08:39:49.119Z,10.99
2022-12-24T08:42:17.221Z,10.99
2022-12-24T08:44:44.037Z,11.01
2022-12-24T08:47:10.720Z,10.99
2022-12-24T08:49:37.523Z,11.02
2022-12-24T08:52:04.974Z,11.03
2022-12-24T08:54:31.728Z,11.04
2022-12-24T08:56:58.653Z,11.04
2022-12-24T08:59:26.797Z,11.05
2022-12-24T09:01:53.632Z,11.05
2022-12-24T09:04:20.434Z,11.06
2022-12-24T09:06:47.119Z,11.05
2022-12-24T09:09:13.862Z,11.07
2022-12-24T09:11:40.566Z,11.09
2022-12-24T09:14:07.409Z,11.09
2022-12-24T09:16:35.601Z,11.10
2022-12-24T09:19:02.800Z,11.12
2022-12-24T09:21:29.568Z,11.15
2022-12-24T09:23:56.304Z,11.17
2022-12-24T09:26:25.291Z,11.18
2022-12-24T09:28:53.699Z,11.19
2022-12-24T09:31:21.861Z,11.21
2022-12-24T09:33:51.340Z,11.22
2022-12-24T09:36:18.789Z,11.22
2022-12-24T09:38:45.555Z,11.23
2022-12-24T09:41:15.855Z,11.24
2022-12-24T09:43:47.675Z,11.26
2022-12-24T09:46:20.554Z,11.26
2022-12-24T09:48:53.289Z,11.29
2022-12-24T09:51:27.439Z,11.31
2022-12-24T09:53:57.381Z,11.30
2022-12-24T09:56:29.078Z,11.33
2022-12-24T09:58:57.652Z,11.32
2022-12-24T10:01:24.894Z,11.33
2022-12-24T10:03:53.048Z,11.33
2022-12-24T10:06:29.063Z,11.33
2022-12-24T10:09:08.824Z,11.36
2022-12-24T10:11:44.488Z,11.38
2022-12-24T10:14:26.538Z,11.40
2022-12-24T10:17:01.697Z,11.45
2022-12-24T10:19:43.463Z,11.45
2022-12-24T10:22:21.550Z,11.46
2022-12-24T10:24:57.359Z,11.47
2022-12-24T10:27:30.702Z,11.49
2022-12-24T10:30:03.956Z,11.52
2022-12-24T10:32:33.621Z,11.52
2022-12-24T10:35:08.686Z,11.55
2022-12-24T10:37:35.480Z,11.57
2022-12-24T10:40:03.299Z,11.59
2022-12-24T10:42:38.456Z,11.61
2022-12-24T10:45:07.935Z,11.65
2022-12-24T10:47:40.150Z,11.66
2022-12-24T10:50:16.128Z,11.69
2022-12-24T10:52:45.292Z,11.73
2022-12-24T10:55:23.547Z,11.77
2022-12-24T10:58:01.599Z,11.80
2022-12-24T11:00:35.833Z,11.82
2022-12-24T11:03:21.357Z,11.83
2022-12-24T11:06:00.634Z,11.86
2022-12-24T11:08:27.593Z,11.87
2022-12-24T11:10:56.875Z,11.89
2022-12-24T11:13:37.284Z,11.88
2022-12-24T11:16:07.982Z,11.87
2022-12-24T11:18:38.597Z,11.89
2022-12-24T11:21:07.954Z,11.89
2022-12-24T11:23:34.864Z,11.90
2022-12-24T11:26:01.841Z,11.92
2022-12-24T11:28:30.368Z,11.93
2022-12-24T11:31:04.311Z,11.95
2022-12-24T11:33:32.155Z,11.92
2022-12-24T11:36:05.285Z,11.92
2022-12-24T11:38:35.079Z,11.93
2022-12-24T11:41:08.782Z,11.92
2022-12-24T11:43:45.756Z,11.94
2022-12-24T11:46:16.851Z,11.93
2022-12-24T11:48:43.682Z,11.91
2022-12-24T11:51:21.718Z,11.89
2022-12-24T11:54:01.879Z,11.90
2022-12-24T11:56:35.176Z,11.89
2022-12-24T11:59:14.859Z,11.89
2022-12-24T12:01:50.854Z,11.88
2022-12-24T12:04:21.902Z,11.87
2022-12-24T12:06:52.666Z,11.84
2022-12-24T12:09:24.132Z,11.82
2022-12-24T12:11:52.667Z,11.79
2022-12-24T12:14:22.535Z,11.78
2022-12-24T12:17:00.711Z,11.79
2022-12-24T12:19:32.548Z,11.78
2022-12-24T12:22:03.343Z,11.79
2022-12-24T12:24:37.938Z,11.80
2022-12-24T12:27:17.074Z,11.81
2022-12-24T12:29:52.871Z,11.82
2022-12-24T12:32:28.023Z,11.82
2022-12-24T12:35:05.626Z,11.82
2022-12-24T12:37:35.648Z,11.81
2022-12-24T12:40:12.021Z,11.81
2022-12-24T12:42:40.683Z,11.80
2022-12-24T12:45:25.561Z,11.80
2022-12-24T12:48:13.746Z,11.80
2022-12-24T12:50:49.766Z,11.81
2022-12-24T12:53:41.873Z,11.80
2022-12-24T12:56:21.670Z,11.82
2022-12-24T12:58:52.991Z,11.82
2022-12-24T13:01:32.017Z,11.82
2022-12-24T13:04:21.881Z,11.81
2022-12-24T13:07:32.711Z,11.80
2022-12-24T13:10:19.367Z,11.76
2022-12-24T13:13:07.043Z,11.76
2022-12-24T13:15:51.903Z,11.73
2022-12-24T13:18:42.483Z,11.69
2022-12-24T13:21:16.992Z,11.70
2022-12-24T13:23:44.093Z,11.69
2022-12-24T13:26:29.782Z,11.67
2022-12-24T13:29:31.653Z,11.66
2022-12-24T13:32:31.626Z,11.64
2022-12-24T13:35:03.165Z,11.62
2022-12-24T13:37:33.422Z,11.60
2022-12-24T13:40:16.222Z,11.58
2022-12-24T13:42:52.021Z,11.55
2022-12-24T13:45:50.601Z,11.52
2022-12-24T13:48:31.484Z,11.51
2022-12-24T13:51:00.982Z,11.48
2022-12-24T13:53:32.933Z,11.48
2022-12-24T13:56:07.545Z,11.46
2022-12-24T13:58:36.601Z,11.44
2022-12-24T14:01:09.224Z,11.44
2022-12-24T14:03:43.490Z,11.44
2022-12-24T14:06:21.081Z,11.43
2022-12-24T14:08:49.525Z,11.41
2022-12-24T14:11:20.065Z,11.39
2022-12-24T14:14:27.879Z,11.37
2022-12-24T14:16:59.037Z,11.35
2022-12-24T14:19:33.673Z,11.34
2022-12-24T14:22:14.549Z,11.33
2022-12-24T14:24:43.912Z,11.32
2022-12-24T14:27:17.186Z,11.32
2022-12-24T14:29:50.703Z,11.32
2022-12-24T14:32:19.531Z,11.34
2022-12-24T14:34:46.309Z,11.33
2022-12-24T14:37:14.190Z,11.35
2022-12-24T14:39:44.136Z,11.37
2022-12-24T14:42:36.120Z,11.35
2022-12-24T14:45:18.100Z,11.35
2022-12-24T14:47:54.489Z,11.34
2022-12-24T14:50:44.655Z,11.33
2022-12-24T14:53:23.866Z,11.33
2022-12-24T14:55:50.979Z,11.32
2022-12-24T14:58:28.720Z,11.29
2022-12-24T15:00:58.981Z,11.28
2022-12-24T15:03:30.307Z,11.26
2022-12-24T15:05:59.569Z,11.24
2022-12-24T15:08:32.644Z,11.23
2022-12-24T15:13:49.883Z,11.19
2022-12-24T15:16:28.296Z,11.16
2022-12-24T15:19:01.719Z,11.14
2022-12-24T15:21:31.312Z,11.12
2022-12-24T15:24:00.797Z,11.11
2022-12-24T15:26:30.910Z,11.09
2022-12-24T15:29:03.779Z,11.06
2022-12-24T15:31:31.985Z,11.03
2022-12-24T15:34:00.695Z,11.02
2022-12-24T15:36:31.758Z,10.98
2022-12-24T15:39:01.916Z,10.95
2022-12-24T15:41:31.745Z,10.92
2022-12-24T15:44:02.731Z,10.89
2022-12-24T15:46:31.563Z,10.86
2022-12-24T15:49:01.903Z,10.81
2022-12-24T15:51:32.725Z,10.75
2022-12-24T15:54:02.734Z,10.72
2022-12-24T15:56:35.807Z,10.69
2022-12-24T15:59:29.205Z,10.64
2022-12-24T16:01:56.117Z,10.60
2022-12-24T16:04:26.451Z,10.55
2022-12-24T16:06:56.073Z,10.52
2022-12-24T16:09:44.026Z,10.49
2022-12-24T16:12:16.018Z,10.43
2022-12-24T16:14:47.848Z,10.38
2022-12-24T16:17:19.278Z,10.35
2022-12-24T16:19:52.396Z,10.30
2022-12-24T16:22:35.161Z,10.25
2022-12-24T16:25:15.191Z,10.19
2022-12-24T16:27:41.895Z,10.13
2022-12-24T16:30:11.637Z,10.07
2022-12-24T16:32:43.777Z,10.03
2022-12-24T16:35:24.628Z,9.99
2022-12-24T16:37:51.366Z,9.92
2022-12-24T16:40:23.345Z,9.87
2022-12-24T16:43:11.950Z,9.80
2022-12-24T16:45:38.767Z,9.74
2022-12-24T16:48:07.093Z,9.68
2022-12-24T16:50:35.271Z,9.62
2022-12-24T16:53:02.021Z,9.56
2022-12-24T16:55:28.730Z,9.49
2022-12-24T16:57:55.557Z,9.43
2022-12-24T17:00:23.404Z,9.40
2022-12-24T17:02:50.800Z,9.36
2022-12-24T17:05:18.041Z,9.32
2022-12-24T17:07:48.568Z,9.26
2022-12-24T17:10:15.405Z,9.19
2022-12-24T17:12:44.066Z,9.14
2022-12-24T17:15:11.278Z,9.11
2022-12-24T17:17:38.315Z,9.03
2022-12-24T17:20:06.905Z,8.98
2022-12-24T17:22:35.879Z,8.93
2022-12-24T17:25:04.754Z,8.88
2022-12-24T17:27:31.571Z,8.84
2022-12-24T17:29:58.631Z,8.81
2022-12-24T17:32:26.429Z,8.76
2022-12-24T17:34:53.415Z,8.69
2022-12-24T17:37:20.191Z,8.66
2022-12-24T17:39:46.987Z,8.64
2022-12-24T17:42:15.123Z,8.64
2022-12-24T17:44:41.850Z,8.62
2022-12-24T17:47:08.718Z,8.60
2022-12-24T17:49:35.670Z,8.56
2022-12-24T17:52:04.673Z,8.54
2022-12-24T17:54:31.481Z,8.49
2022-12-24T17:57:01.126Z,8.43
2022-12-24T17:59:29.402Z,8.41
2022-12-24T18:01:56.109Z,8.38
2022-12-24T18:04:24.015Z,8.37
2022-12-24T18:06:54.906Z,8.35
2022-12-24T18:09:26.375Z,8.32
2022-12-24T18:11:53.435Z,8.30
2022-12-24T18:14:21.558Z,8.29
2022-12-24T18:16:53.157Z,8.28
2022-12-24T18:19:19.978Z,8.26
2022-12-24T18:21:46.817Z,8.26
2022-12-24T18:24:14.035Z,8.26
2022-12-24T18:26:40.951Z,8.26
2022-12-24T18:29:08.927Z,8.26
2022-12-24T18:31:36.074Z,8.26
2022-12-24T18:34:06.588Z,8.29
2022-12-24T18:36:33.925Z,8.31
2022-12-24T18:39:03.903Z,8.32
2022-12-24T18:41:31.497Z,8.35
2022-12-24T18:43:59.020Z,8.35
2022-12-24T18:46:30.212Z,8.37
2022-12-24T18:48:59.726Z,8.38
2022-12-24T18:51:31.114Z,8.38
2022-12-24T18:53:57.956Z,8.40
2022-12-24T18:56:26.191Z,8.41
2022-12-24T18:58:54.646Z,8.44
2022-12-24T19:01:23.380Z,8.45
2022-12-24T19:03:50.832Z,8.47
2022-12-24T19:06:18.830Z,8.49
2022-12-24T19:09:03.160Z,8.50
2022-12-24T19:11:31.585Z,8.53
2022-12-24T19:13:58.806Z,8.53
2022-12-24T19:16:26.446Z,8.55
2022-12-24T19:18:53.511Z,8.57
2022-12-24T19:21:20.764Z,8.57
2022-12-24T19:23:49.670Z,8.58
2022-12-24T19:26:17.950Z,8.59
2022-12-24T19:28:45.413Z,8.60
2022-12-24T19:31:14.363Z,8.61
2022-12-24T19:33:44.116Z,8.61
2022-12-24T19:36:13.703Z,8.62
2022-12-24T19:38:41.243Z,8.62
2022-12-24T19:41:12.534Z,8.63
2022-12-24T19:43:41.291Z,8.64
2022-12-24T19:46:09.438Z,8.67
2022-12-24T19:48:36.834Z,8.70
2022-12-24T19:51:05.008Z,8.71
2022-12-24T19:53:31.976Z,8.73
2022-12-24T19:55:58.954Z,8.74
2022-12-24T19:58:28.384Z,8.75
2022-12-24T20:00:56.236Z,8.77
2022-12-24T20:03:23.150Z,8.78
2022-12-24T20:05:49.856Z,8.80
2022-12-24T20:08:17.307Z,8.81
2022-12-24T20:10:44.435Z,8.83
2022-12-24T20:13:11.378Z,8.84
2022-12-24T20:15:40.468Z,8.85
2022-12-24T20:18:07.755Z,8.87
2022-12-24T20:20:34.716Z,8.88
2022-12-24T20:23:01.551Z,8.89
2022-12-24T20:25:28.405Z,8.92
2022-12-24T20:27:55.271Z,8.92
2022-12-24T20:30:22.069Z,8.94
2022-12-24T20:32:53.021Z,8.95
2022-12-24T20:35:19.788Z,8.96
2022-12-24T20:37:46.663Z,8.97
2022-12-24T20:40:14.313Z,8.98
2022-12-24T20:42:41.073Z,8.99
2022-12-24T20:45:08.281Z,9.00
2022-12-24T20:47:35.558Z,9.02
2022-12-24T20:50:04.238Z,9.05
2022-12-24T20:52:30.883Z,9.07
2022-12-24T20:54:57.622Z,9.09
2022-12-24T20:57:27.716Z,9.13
2022-12-24T20:59:54.532Z,9.16
2022-12-24T21:02:21.411Z,9.17
2022-12-24T21:04:48.371Z,9.19
2022-12-24T21:07:16.851Z,9.21
2022-12-24T21:09:43.529Z,9.23
2022-12-24T21:12:30.332Z,9.25
2022-12-24T21:14:57.118Z,9.27
2022-12-24T21:17:23.843Z,9.30
2022-12-24T21:19:50.578Z,9.33
2022-12-24T21:22:18.699Z,9.35
2022-12-24T21:24:46.708Z,9.37
2022-12-24T21:27:13.463Z,9.39
2022-12-24T21:29:40.120Z,9.42
2022-12-24T21:32:06.842Z,9.46
2022-12-24T21:34:33.718Z,9.46
2022-12-24T21:37:00.504Z,9.50
2022-12-24T21:39:28.556Z,9.51
2022-12-24T21:41:55.314Z,9.53
2022-12-24T21:44:22.005Z,9.55
2022-12-24T21:46:48.745Z,9.56
2022-12-24T21:49:33.985Z,9.57
2022-12-24T21:52:01.065Z,9.57
2022-12-24T21:54:31.777Z,9.58
2022-12-24T21:57:18.789Z,9.58
2022-12-24T21:59:46.001Z,9.58
2022-12-24T22:02:14.167Z,9.57
2022-12-24T22:04:42.005Z,9.58
2022-12-24T22:07:38.409Z,9.59
2022-12-24T22:10:26.257Z,9.58
2022-12-24T22:12:53.661Z,9.56
2022-12-24T22:15:20.675Z,9.55
2022-12-24T22:17:47.373Z,9.54
2022-12-24T22:20:14.155Z,9.54
2022-12-24T22:22:41.287Z,9.54
2022-12-24T22:25:09.695Z,9.51
2022-12-24T22:27:39.513Z,9.50
2022-12-24T22:30:07.719Z,9.48
2022-12-24T22:32:34.460Z,9.46
2022-12-24T22:35:01.495Z,9.45
2022-12-24T22:37:28.199Z,9.42
2022-12-24T22:39:54.838Z,9.42
2022-12-24T22:42:22.947Z,9.41
2022-12-24T22:44:49.617Z,9.39
2022-12-24T22:47:16.295Z,9.38
2022-12-24T22:49:42.970Z,9.37
2022-12-24T22:52:09.721Z,9.35
2022-12-24T22:54:36.805Z,9.35
2022-12-24T22:57:03.625Z,9.34
2022-12-24T22:59:31.692Z,9.33
2022-12-24T23:01:59.025Z,9.31
2022-12-24T23:04:26.145Z,9.31
2022-12-24T23:06:52.867Z,9.30
2022-12-24T23:09:19.546Z,9.28
2022-12-24T23:11:46.351Z,9.28
2022-12-24T23:14:34.435Z,9.28
2022-12-24T23:17:02.944Z,9.27
2022-12-24T23:19:31.874Z,9.26
2022-12-24T23:21:58.627Z,9.26
2022-12-24T23:24:25.669Z,9.25
2022-12-24T23:26:52.712Z,9.24
2022-12-24T23:29:19.668Z,9.25
2022-12-24T23:31:46.303Z,9.25
2022-12-24T23:34:14.490Z,9.24
2022-12-24T23:36:41.398Z,9.23
2022-12-24T23:39:08.063Z,9.23
2022-12-24T23:41:35.073Z,9.22
2022-12-24T23:44:02.247Z,9.21
2022-12-24T23:46:29.182Z,9.21
2022-12-24T23:48:56.576Z,9.22
2022-12-24T23:51:26.168Z,9.22
2022-12-24T23:53:54.862Z,9.23
2022-12-24T23:56:22.870Z,9.24
2022-12-24T23:58:49.545Z,9.25
